^^
Saratoga-Weather Station Historical Data
Daily Summary for September 4, 2021 Units:  Metric    English   Both
Daily Weekly Monthly Yearly Custom
  High: Low: Average:
Temperature: 8.2 °C 5.2 °C 6.5 °C
Dew Point: 6.4 °C 4.3 °C 5.3 °C
Humidity: 95% 87% 92%
Wind Speed: 20.9km/h 0km/h 6.4km/h
Wind Gust: 22.5km/h - -
Wind- - West
Pressure: 1014.2 hPa 1001.7 hPa -
Precipitation: 0.8 mm    
Historical Graphs
 
 
Tabular Data for September 4, 2021
Time Temperature Dew Point Pressure Wind Wind Speed Wind Gust Humidity Rainfall Rate (Hourly) solar
00:02 5.8 °C 4.6 °C 1001.7 hPa WNW 4.7 km/h 11.3 km/h 92% 0.0 mm 0 W/m2
00:07 5.8 °C 4.6 °C 1001.7 hPa WNW 11.1 km/h 12.9 km/h 92% 0.0 mm 0 W/m2
00:12 5.8 °C 4.6 °C 1001.7 hPa West 6.4 km/h 19.3 km/h 92% 0.0 mm 0 W/m2
00:17 5.9 °C 4.5 °C 1001.7 hPa WSW 6.4 km/h 12.9 km/h 91% 0.0 mm 0 W/m2
00:22 5.8 °C 4.4 °C 1002.0 hPa WSW 6.4 km/h 19.3 km/h 91% 0.0 mm 0 W/m2
00:27 5.8 °C 4.4 °C 1002.0 hPa West 6.4 km/h 12.9 km/h 91% 0.0 mm 0 W/m2
00:32 5.8 °C 4.4 °C 1002.0 hPa West 9.7 km/h 19.3 km/h 91% 0.0 mm 0 W/m2
00:37 5.8 °C 4.6 °C 1002.0 hPa West 4.7 km/h 12.9 km/h 92% 0.0 mm 0 W/m2
00:42 5.8 °C 4.6 °C 1002.0 hPa NW 13 km/h 16.1 km/h 92% 0.0 mm 0 W/m2
00:47 5.8 °C 4.6 °C 1002.0 hPa WNW 7.9 km/h 9.7 km/h 92% 0.2 mm 0 W/m2
00:52 5.8 °C 4.6 °C 1002.0 hPa WNW 4.7 km/h 11.3 km/h 92% 0.2 mm 0 W/m2
00:57 5.7 °C 4.5 °C 1002.0 hPa WNW 9.7 km/h 12.9 km/h 92% 0.5 mm 0 W/m2
01:02 5.7 °C 4.7 °C 1002.0 hPa West 9.7 km/h 16.1 km/h 93% 0.5 mm 0 W/m2
01:07 5.7 °C 4.7 °C 1002.0 hPa NW 4.7 km/h 9.7 km/h 93% 0.5 mm 0 W/m2
01:12 5.8 °C 4.8 °C 1002.0 hPa WNW 6.4 km/h 9.7 km/h 93% 0.5 mm 0 W/m2
01:17 5.7 °C 4.7 °C 1002.0 hPa West 4.7 km/h 9.7 km/h 93% 0.5 mm 0 W/m2
01:22 5.7 °C 4.7 °C 1002.0 hPa WNW 4.7 km/h 9.7 km/h 93% 0.5 mm 0 W/m2
01:27 5.8 °C 4.8 °C 1002.0 hPa WNW 3.2 km/h 11.3 km/h 93% 0.5 mm 0 W/m2
01:32 5.8 °C 4.8 °C 1002.0 hPa WSW 7.9 km/h 9.7 km/h 93% 0.5 mm 0 W/m2
01:37 5.8 °C 4.8 °C 1002.0 hPa WNW 4.7 km/h 11.3 km/h 93% 0.5 mm 0 W/m2
01:42 5.8 °C 4.8 °C 1002.0 hPa WSW 4.7 km/h 9.7 km/h 93% 0.5 mm 0 W/m2
01:47 5.8 °C 4.8 °C 1002.0 hPa West 3.2 km/h 11.3 km/h 93% 0.2 mm 0 W/m2
01:52 5.8 °C 4.8 °C 1002.0 hPa NW 4.7 km/h 12.9 km/h 93% 0.2 mm 0 W/m2
01:57 5.8 °C 4.8 °C 1002.4 hPa WSW 4.7 km/h 11.3 km/h 93% 0.0 mm 0 W/m2
02:02 5.8 °C 4.8 °C 1002.4 hPa WNW 3.2 km/h 12.9 km/h 93% 0.0 mm 0 W/m2
02:07 5.8 °C 4.8 °C 1002.4 hPa WNW 3.2 km/h 11.3 km/h 93% 0.2 mm 0 W/m2
02:12 5.9 °C 4.9 °C 1002.4 hPa WNW 6.4 km/h 14.5 km/h 93% 0.2 mm 0 W/m2
02:17 5.9 °C 4.7 °C 1002.4 hPa WNW 3.2 km/h 14.5 km/h 92% 0.2 mm 0 W/m2
02:22 5.9 °C 4.7 °C 1002.4 hPa West 4.7 km/h 9.7 km/h 92% 0.2 mm 0 W/m2
02:27 5.9 °C 4.7 °C 1002.0 hPa WNW 4.7 km/h 9.7 km/h 92% 0.2 mm 0 W/m2
02:32 5.9 °C 4.7 °C 1002.0 hPa WNW 3.2 km/h 11.3 km/h 92% 0.2 mm 0 W/m2
02:37 5.9 °C 4.7 °C 1002.0 hPa NW 6.4 km/h 16.1 km/h 92% 0.2 mm 0 W/m2
02:42 5.9 °C 4.7 °C 1002.4 hPa West 6.4 km/h 8 km/h 92% 0.2 mm 0 W/m2
02:47 5.9 °C 4.7 °C 1002.7 hPa WSW 4.7 km/h 6.4 km/h 92% 0.2 mm 0 W/m2
02:52 5.9 °C 4.7 °C 1002.7 hPa WNW 4.7 km/h 16.1 km/h 92% 0.2 mm 0 W/m2
02:57 5.9 °C 4.7 °C 1002.7 hPa West 9.7 km/h 14.5 km/h 92% 0.2 mm 0 W/m2
03:02 5.9 °C 4.7 °C 1002.7 hPa West 4.7 km/h 12.9 km/h 92% 0.2 mm 0 W/m2
03:07 5.9 °C 4.7 °C 1002.7 hPa WNW 11.1 km/h 14.5 km/h 92% 0.0 mm 0 W/m2
03:12 5.9 °C 4.7 °C 1002.7 hPa West 9.7 km/h 14.5 km/h 92% 0.0 mm 0 W/m2
03:17 6 °C 4.8 °C 1002.7 hPa West 4.7 km/h 17.7 km/h 92% 0.0 mm 0 W/m2
03:22 6 °C 4.8 °C 1002.7 hPa WNW 6.4 km/h 14.5 km/h 92% 0.0 mm 0 W/m2
03:27 6 °C 4.8 °C 1002.7 hPa WSW 11.1 km/h 17.7 km/h 92% 0.0 mm 0 W/m2
03:32 5.9 °C 4.7 °C 1002.7 hPa WSW 4.7 km/h 14.5 km/h 92% 0.0 mm 0 W/m2
03:37 5.9 °C 4.7 °C 1002.7 hPa WNW 14.3 km/h 14.5 km/h 92% 0.0 mm 0 W/m2
03:42 5.9 °C 4.7 °C 1002.7 hPa WNW 7.9 km/h 12.9 km/h 92% 0.0 mm 0 W/m2
03:47 5.9 °C 4.7 °C 1002.7 hPa West 14.3 km/h 17.7 km/h 92% 0.0 mm 0 W/m2
03:53 5.9 °C 4.7 °C 1002.7 hPa SW 16.3 km/h 20.9 km/h 92% 0.0 mm 0 W/m2
03:58 6 °C 4.8 °C 1002.7 hPa West 9.7 km/h 16.1 km/h 92% 0.0 mm 0 W/m2
04:03 6 °C 4.8 °C 1002.7 hPa NW 13 km/h 16.1 km/h 92% 0.0 mm 0 W/m2
04:08 6.1 °C 4.9 °C 1002.7 hPa WSW 17.7 km/h 17.7 km/h 92% 0.0 mm 0 W/m2
04:13 6 °C 4.8 °C 1002.7 hPa WNW 11.1 km/h 16.1 km/h 92% 0.0 mm 0 W/m2
04:18 5.9 °C 4.7 °C 1002.7 hPa West 11.1 km/h 19.3 km/h 92% 0.0 mm 0 W/m2
04:23 5.9 °C 4.7 °C 1002.7 hPa West 9.7 km/h 17.7 km/h 92% 0.0 mm 0 W/m2
04:28 5.8 °C 4.6 °C 1002.7 hPa West 11.1 km/h 19.3 km/h 92% 0.0 mm 0 W/m2
04:33 5.7 °C 4.5 °C 1002.7 hPa West 14.3 km/h 19.3 km/h 92% 0.0 mm 0 W/m2
04:38 5.7 °C 4.5 °C 1002.7 hPa WNW 11.1 km/h 14.5 km/h 92% 0.0 mm 0 W/m2
04:43 5.7 °C 4.7 °C 1002.7 hPa WSW 6.4 km/h 19.3 km/h 93% 0.0 mm 0 W/m2
04:48 5.7 °C 4.5 °C 1003.0 hPa NW 7.9 km/h 12.9 km/h 92% 0.0 mm 0 W/m2
04:53 5.6 °C 4.6 °C 1003.0 hPa SW 11.1 km/h 16.1 km/h 93% 0.0 mm 0 W/m2
04:58 5.6 °C 4.6 °C 1003.0 hPa West 9.7 km/h 20.9 km/h 93% 0.0 mm 0 W/m2
05:03 5.6 °C 4.6 °C 1003.0 hPa West 11.1 km/h 19.3 km/h 93% 0.0 mm 0 W/m2
05:08 5.6 °C 4.6 °C 1003.4 hPa West 14.3 km/h 16.1 km/h 93% 0.0 mm 0 W/m2
05:13 5.6 °C 4.6 °C 1003.4 hPa NW 6.4 km/h 14.5 km/h 93% 0.0 mm 0 W/m2
05:18 5.7 °C 4.7 °C 1003.4 hPa WNW 7.9 km/h 16.1 km/h 93% 0.0 mm 0 W/m2
05:23 5.7 °C 4.7 °C 1003.4 hPa West 11.1 km/h 16.1 km/h 93% 0.0 mm 0 W/m2
05:28 5.7 °C 4.7 °C 1003.4 hPa West 11.1 km/h 17.7 km/h 93% 0.0 mm 0 W/m2
05:33 5.8 °C 4.8 °C 1003.4 hPa West 14.3 km/h 17.7 km/h 93% 0.0 mm 0 W/m2
05:38 5.8 °C 4.8 °C 1003.4 hPa WNW 11.1 km/h 14.5 km/h 93% 0.0 mm 0 W/m2
05:43 5.8 °C 4.8 °C 1003.7 hPa WNW 4.7 km/h 19.3 km/h 93% 0.0 mm 0 W/m2
05:48 5.8 °C 4.8 °C 1003.7 hPa WSW 13 km/h 16.1 km/h 93% 0.0 mm 0 W/m2
05:53 5.8 °C 4.8 °C 1003.7 hPa WSW 11.1 km/h 19.3 km/h 93% 0.0 mm 0 W/m2
05:58 5.7 °C 4.7 °C 1003.7 hPa WSW 6.4 km/h 14.5 km/h 93% 0.0 mm 0 W/m2
06:03 5.7 °C 4.7 °C 1003.7 hPa West 14.3 km/h 14.5 km/h 93% 0.0 mm 0 W/m2
06:08 5.6 °C 4.6 °C 1003.7 hPa West 9.7 km/h 14.5 km/h 93% 0.0 mm 0 W/m2
06:13 5.6 °C 4.6 °C 1003.7 hPa West 9.7 km/h 14.5 km/h 93% 0.0 mm 0 W/m2
06:18 5.6 °C 4.6 °C 1003.7 hPa West 9.7 km/h 19.3 km/h 93% 0.0 mm 0 W/m2
06:23 5.6 °C 4.6 °C 1003.7 hPa NW 7.9 km/h 17.7 km/h 93% 0.0 mm 0 W/m2
06:28 5.6 °C 4.6 °C 1004.1 hPa WNW 11.1 km/h 19.3 km/h 93% 0.0 mm 0 W/m2
06:33 5.6 °C 4.6 °C 1004.1 hPa WNW 6.4 km/h 14.5 km/h 93% 0.0 mm 0 W/m2
06:38 5.4 °C 4.4 °C 1004.1 hPa WNW 13 km/h 19.3 km/h 93% 0.0 mm 0 W/m2
06:43 5.4 °C 4.4 °C 1004.1 hPa NW 6.4 km/h 16.1 km/h 93% 0.0 mm 0 W/m2
06:48 5.3 °C 4.3 °C 1004.1 hPa WSW 13 km/h 17.7 km/h 93% 0.0 mm 0 W/m2
06:53 5.3 °C 4.4 °C 1004.1 hPa WSW 6.4 km/h 19.3 km/h 94% 0.0 mm 0 W/m2
06:58 5.4 °C 4.4 °C 1004.1 hPa West 9.7 km/h 19.3 km/h 93% 0.0 mm 0 W/m2
07:03 5.4 °C 4.4 °C 1004.1 hPa West 9.7 km/h 17.7 km/h 93% 0.0 mm 0 W/m2
07:08 5.4 °C 4.4 °C 1004.1 hPa WNW 6.4 km/h 17.7 km/h 93% 0.0 mm 0 W/m2
07:13 5.4 °C 4.4 °C 1004.4 hPa WSW 16.3 km/h 16.1 km/h 93% 0.0 mm 0 W/m2
07:18 5.4 °C 4.4 °C 1004.4 hPa West 13 km/h 19.3 km/h 93% 0.0 mm 0 W/m2
07:23 5.3 °C 4.3 °C 1004.4 hPa WNW 16.3 km/h 16.1 km/h 93% 0.0 mm 0 W/m2
07:28 5.3 °C 4.3 °C 1004.4 hPa West 14.3 km/h 14.5 km/h 93% 0.0 mm 0 W/m2
07:33 5.3 °C 4.4 °C 1004.4 hPa WSW 6.4 km/h 14.5 km/h 94% 0.0 mm 0 W/m2
07:38 5.2 °C 4.3 °C 1004.4 hPa WSW 7.9 km/h 14.5 km/h 94% 0.0 mm 0 W/m2
07:43 5.3 °C 4.4 °C 1004.7 hPa West 13 km/h 14.5 km/h 94% 0.0 mm 5 W/m2
07:48 5.3 °C 4.4 °C 1004.7 hPa West 4.7 km/h 12.9 km/h 94% 0.0 mm 5 W/m2
07:53 5.3 °C 4.4 °C 1004.7 hPa WSW 4.7 km/h 12.9 km/h 94% 0.0 mm 5 W/m2
07:58 5.3 °C 4.4 °C 1004.7 hPa WSW 7.9 km/h 11.3 km/h 94% 0.0 mm 7 W/m2
08:03 5.4 °C 4.5 °C 1005.1 hPa NW 11.1 km/h 14.5 km/h 94% 0.0 mm 7 W/m2
08:08 5.4 °C 4.5 °C 1005.1 hPa West 4.7 km/h 11.3 km/h 94% 0.0 mm 12 W/m2
08:13 5.4 °C 4.5 °C 1005.4 hPa WNW 4.7 km/h 12.9 km/h 94% 0.0 mm 16 W/m2
08:19 5.4 °C 4.5 °C 1005.4 hPa NNW 7.9 km/h 9.7 km/h 94% 0.0 mm 11 W/m2
08:24 5.4 °C 4.5 °C 1005.4 hPa WSW 4.7 km/h 9.7 km/h 94% 0.0 mm 12 W/m2
08:29 5.4 °C 4.5 °C 1005.8 hPa WSW 14.3 km/h 14.5 km/h 94% 0.0 mm 18 W/m2
08:34 5.4 °C 4.5 °C 1005.8 hPa WSW 7.9 km/h 14.5 km/h 94% 0.0 mm 49 W/m2
08:39 5.4 °C 4.5 °C 1005.8 hPa West 6.4 km/h 9.7 km/h 94% 0.0 mm 47 W/m2
08:44 5.5 °C 4.6 °C 1005.8 hPa West 3.2 km/h 14.5 km/h 94% 0.0 mm 51 W/m2
08:49 5.6 °C 4.7 °C 1005.8 hPa West 4.7 km/h 11.3 km/h 94% 0.0 mm 47 W/m2
08:54 5.7 °C 4.8 °C 1005.8 hPa WNW 4.7 km/h 11.3 km/h 94% 0.0 mm 42 W/m2
08:59 5.7 °C 4.8 °C 1005.8 hPa NW 4.7 km/h 9.7 km/h 94% 0.0 mm 58 W/m2
09:04 5.7 °C 4.8 °C 1006.1 hPa WNW 6.4 km/h 12.9 km/h 94% 0.0 mm 21 W/m2
09:10 5.7 °C 4.8 °C 1006.1 hPa WNW 7.9 km/h 16.1 km/h 94% 0.0 mm 21 W/m2
09:15 5.7 °C 4.8 °C 1006.1 hPa West 6.4 km/h 11.3 km/h 94% 0.0 mm 28 W/m2
09:20 5.7 °C 4.7 °C 1006.1 hPa NW 13 km/h 16.1 km/h 93% 0.0 mm 37 W/m2
09:25 5.7 °C 4.7 °C 1006.1 hPa WNW 3.2 km/h 6.4 km/h 93% 0.0 mm 25 W/m2
09:30 5.7 °C 4.7 °C 1006.4 hPa WNW 11.1 km/h 16.1 km/h 93% 0.0 mm 23 W/m2
09:35 5.7 °C 4.7 °C 1006.4 hPa West 4.7 km/h 11.3 km/h 93% 0.0 mm 32 W/m2
09:40 5.8 °C 4.8 °C 1006.4 hPa WNW 7.9 km/h 14.5 km/h 93% 0.0 mm 42 W/m2
09:45 5.8 °C 4.8 °C 1006.4 hPa West 9.7 km/h 12.9 km/h 93% 0.0 mm 44 W/m2
09:50 5.8 °C 4.8 °C 1006.4 hPa WSW 11.1 km/h 16.1 km/h 93% 0.0 mm 84 W/m2
09:55 5.9 °C 4.9 °C 1006.4 hPa WSW 11.1 km/h 12.9 km/h 93% 0.0 mm 65 W/m2
10:00 6 °C 5 °C 1006.4 hPa WSW 7.9 km/h 16.1 km/h 93% 0.0 mm 125 W/m2
10:05 6.2 °C 5.2 °C 1006.4 hPa WNW 7.9 km/h 12.9 km/h 93% 0.0 mm 156 W/m2
10:10 6.3 °C 5.3 °C 1006.8 hPa WSW 7.9 km/h 14.5 km/h 93% 0.0 mm 165 W/m2
10:15 6.4 °C 5.4 °C 1006.8 hPa NW 6.4 km/h 14.5 km/h 93% 0.0 mm 155 W/m2
10:20 6.4 °C 5.2 °C 1006.8 hPa WSW 11.1 km/h 17.7 km/h 92% 0.0 mm 153 W/m2
10:25 6.4 °C 5.2 °C 1006.8 hPa WNW 11.1 km/h 16.1 km/h 92% 0.0 mm 169 W/m2
10:34 6.7 °C 5.4 °C 1007.1 hPa West 12.1 km/h 14.5 km/h 92% 0.0 mm 163 W/m2
10:42 6.8 °C 5.4 °C 1007.1 hPa WNW 9.7 km/h 9.7 km/h 91% 0.0 mm 165 W/m2
10:47 6.9 °C 5.7 °C 1007.1 hPa NW 4.7 km/h 14.5 km/h 92% 0.0 mm 176 W/m2
10:52 6.9 °C 5.5 °C 1007.1 hPa WNW 3.2 km/h 16.1 km/h 91% 0.0 mm 178 W/m2
10:57 6.9 °C 5.5 °C 1007.5 hPa West 6.4 km/h 16.1 km/h 91% 0.0 mm 163 W/m2
11:02 7.1 °C 5.7 °C 1007.5 hPa West 6.4 km/h 11.3 km/h 91% 0.0 mm 162 W/m2
11:07 7.1 °C 5.7 °C 1007.5 hPa WNW 6.4 km/h 14.5 km/h 91% 0.0 mm 158 W/m2
11:12 7 °C 5.5 °C 1007.5 hPa West 16.3 km/h 22.5 km/h 90% 0.0 mm 153 W/m2
11:17 7 °C 5.6 °C 1007.5 hPa West 9.7 km/h 16.1 km/h 91% 0.0 mm 149 W/m2
11:22 7.1 °C 5.6 °C 1007.5 hPa West 9.7 km/h 16.1 km/h 90% 0.0 mm 158 W/m2
11:27 7.1 °C 5.7 °C 1007.8 hPa WSW 20.9 km/h 20.9 km/h 91% 0.0 mm 153 W/m2
11:32 7.1 °C 5.6 °C 1007.8 hPa West 9.7 km/h 14.5 km/h 90% 0.0 mm 155 W/m2
11:37 7.2 °C 5.8 °C 1007.8 hPa West 9.7 km/h 20.9 km/h 91% 0.0 mm 139 W/m2
11:42 7.2 °C 5.7 °C 1007.8 hPa West 4.7 km/h 20.9 km/h 90% 0.0 mm 120 W/m2
11:47 7.2 °C 5.8 °C 1007.8 hPa WSW 6.4 km/h 11.3 km/h 91% 0.0 mm 132 W/m2
11:52 7.2 °C 5.8 °C 1007.8 hPa WNW 7.9 km/h 20.9 km/h 91% 0.0 mm 105 W/m2
11:57 7.2 °C 5.8 °C 1007.8 hPa WSW 6.4 km/h 9.7 km/h 91% 0.0 mm 137 W/m2
12:02 7.1 °C 5.7 °C 1008.1 hPa West 6.4 km/h 16.1 km/h 91% 0.0 mm 132 W/m2
12:07 7.1 °C 5.7 °C 1008.1 hPa West 4.7 km/h 12.9 km/h 91% 0.0 mm 102 W/m2
12:12 7.1 °C 5.7 °C 1008.1 hPa WNW 7.9 km/h 20.9 km/h 91% 0.0 mm 116 W/m2
12:17 7.1 °C 5.7 °C 1008.1 hPa NW 4.7 km/h 12.9 km/h 91% 0.0 mm 111 W/m2
12:22 7.2 °C 5.8 °C 1008.1 hPa West 6.4 km/h 20.9 km/h 91% 0.0 mm 120 W/m2
12:27 7.2 °C 5.8 °C 1008.1 hPa West 6.4 km/h 14.5 km/h 91% 0.0 mm 120 W/m2
12:32 7.1 °C 5.7 °C 1008.1 hPa WNW 7.9 km/h 16.1 km/h 91% 0.0 mm 111 W/m2
12:37 7.1 °C 5.7 °C 1008.1 hPa WNW 7.9 km/h 14.5 km/h 91% 0.0 mm 98 W/m2
12:42 7.1 °C 5.7 °C 1008.1 hPa West 6.4 km/h 16.1 km/h 91% 0.0 mm 134 W/m2
12:47 7.1 °C 5.7 °C 1008.1 hPa West 13 km/h 16.1 km/h 91% 0.0 mm 104 W/m2
12:52 7.1 °C 5.7 °C 1008.1 hPa West 11.1 km/h 14.5 km/h 91% 0.0 mm 113 W/m2
12:57 7.1 °C 5.7 °C 1008.1 hPa West 6.4 km/h 16.1 km/h 91% 0.0 mm 120 W/m2
13:02 7.2 °C 6 °C 1008.5 hPa WNW 6.4 km/h 12.9 km/h 92% 0.0 mm 105 W/m2
13:07 7.2 °C 6 °C 1008.5 hPa WNW 6.4 km/h 16.1 km/h 92% 0.0 mm 109 W/m2
13:12 7.2 °C 5.8 °C 1008.5 hPa NW 9.7 km/h 14.5 km/h 91% 0.0 mm 93 W/m2
13:17 7.3 °C 5.9 °C 1008.5 hPa NW 1.4 km/h 11.3 km/h 91% 0.0 mm 74 W/m2
13:22 7.3 °C 5.9 °C 1008.5 hPa WNW 6.4 km/h 11.3 km/h 91% 0.0 mm 63 W/m2
13:27 7.3 °C 5.9 °C 1008.5 hPa West 6.4 km/h 16.1 km/h 91% 0.0 mm 70 W/m2
13:32 7.3 °C 5.9 °C 1008.5 hPa WNW 7.9 km/h 9.7 km/h 91% 0.0 mm 98 W/m2
13:37 7.4 °C 6 °C 1008.5 hPa WNW 7.9 km/h 14.5 km/h 91% 0.0 mm 111 W/m2
13:42 7.6 °C 6.1 °C 1008.5 hPa NW 3.2 km/h 11.3 km/h 90% 0.0 mm 111 W/m2
13:47 7.7 °C 6.2 °C 1008.5 hPa West 3.2 km/h 9.7 km/h 90% 0.0 mm 156 W/m2
13:52 7.8 °C 6.3 °C 1008.8 hPa WSW 11.1 km/h 12.9 km/h 90% 0.0 mm 179 W/m2
13:57 7.9 °C 6.4 °C 1008.5 hPa SSW 3.2 km/h 11.3 km/h 90% 0.0 mm 91 W/m2
14:02 7.9 °C 6.2 °C 1008.8 hPa West 6.4 km/h 12.9 km/h 89% 0.0 mm 84 W/m2
14:07 8 °C 6.3 °C 1008.8 hPa SW 9.7 km/h 12.9 km/h 89% 0.0 mm 148 W/m2
14:12 8.1 °C 6.4 °C 1008.8 hPa WSW 16.3 km/h 16.1 km/h 89% 0.0 mm 107 W/m2
14:17 8.1 °C 6.2 °C 1008.8 hPa West 3.2 km/h 11.3 km/h 88% 0.0 mm 130 W/m2
14:22 8.1 °C 6.2 °C 1008.8 hPa WNW 11.1 km/h 14.5 km/h 88% 0.0 mm 111 W/m2
14:27 8.1 °C 6.2 °C 1008.8 hPa WSW 6.4 km/h 12.9 km/h 88% 0.0 mm 88 W/m2
14:32 8.1 °C 6.2 °C 1008.8 hPa West 3.2 km/h 12.9 km/h 88% 0.0 mm 113 W/m2
14:37 8.1 °C 6.2 °C 1008.8 hPa WNW 6.4 km/h 6.4 km/h 88% 0.0 mm 98 W/m2
14:42 8.1 °C 6.2 °C 1008.8 hPa NNW 1.4 km/h 11.3 km/h 88% 0.0 mm 111 W/m2
14:47 8.1 °C 6.1 °C 1008.8 hPa WNW 4.7 km/h 6.4 km/h 87% 0.0 mm 60 W/m2
14:52 8.1 °C 6.2 °C 1009.1 hPa NW 3.2 km/h 6.4 km/h 88% 0.0 mm 58 W/m2
14:57 8.1 °C 6.2 °C 1009.1 hPa West 3.2 km/h 8 km/h 88% 0.0 mm 100 W/m2
15:02 8.1 °C 6.2 °C 1009.1 hPa WSW 4.7 km/h 11.3 km/h 88% 0.0 mm 120 W/m2
15:07 8.1 °C 6.2 °C 1009.1 hPa West 6.4 km/h 12.9 km/h 88% 0.0 mm 109 W/m2
15:12 8.1 °C 6.2 °C 1009.1 hPa WSW 3.2 km/h 11.3 km/h 88% 0.0 mm 70 W/m2
15:17 8.2 °C 6.3 °C 1009.1 hPa NNW 4.7 km/h 12.9 km/h 88% 0.0 mm 63 W/m2
15:22 8.1 °C 6.2 °C 1009.1 hPa West 9.7 km/h 12.9 km/h 88% 0.0 mm 63 W/m2
15:27 8 °C 6 °C 1009.1 hPa NW 3.2 km/h 6.4 km/h 87% 0.0 mm 81 W/m2
15:33 7.9 °C 5.9 °C 1009.1 hPa NW 6.4 km/h 16.1 km/h 87% 0.0 mm 98 W/m2
15:38 7.8 °C 5.8 °C 1009.1 hPa SW 4.7 km/h 8 km/h 87% 0.0 mm 98 W/m2
15:43 7.8 °C 5.8 °C 1009.5 hPa NW 3.2 km/h 6.4 km/h 87% 0.0 mm 47 W/m2
15:48 7.8 °C 5.8 °C 1009.5 hPa WNW 3.2 km/h 6.4 km/h 87% 0.0 mm 53 W/m2
15:53 7.7 °C 5.7 °C 1009.5 hPa West 9.7 km/h 9.7 km/h 87% 0.0 mm 30 W/m2
15:58 7.7 °C 5.7 °C 1009.8 hPa West 6.4 km/h 12.9 km/h 87% 0.0 mm 28 W/m2
16:03 7.6 °C 5.7 °C 1009.8 hPa West 4.7 km/h 16.1 km/h 88% 0.0 mm 19 W/m2
16:08 7.5 °C 5.6 °C 1009.8 hPa NW 3.2 km/h 11.3 km/h 88% 0.0 mm 21 W/m2
16:13 7.4 °C 5.5 °C 1009.8 hPa West 11.1 km/h 12.9 km/h 88% 0.0 mm 14 W/m2
16:18 7.4 °C 5.7 °C 1010.2 hPa WNW 4.7 km/h 16.1 km/h 89% 0.0 mm 9 W/m2
16:23 7.3 °C 5.6 °C 1010.2 hPa NW 4.7 km/h 9.7 km/h 89% 0.0 mm 9 W/m2
16:28 7.2 °C 5.7 °C 1010.2 hPa WNW 3.2 km/h 12.9 km/h 90% 0.0 mm 7 W/m2
16:33 7.2 °C 5.7 °C 1010.2 hPa West 6.4 km/h 11.3 km/h 90% 0.0 mm 7 W/m2
16:38 7.1 °C 5.6 °C 1010.2 hPa West 3.2 km/h 16.1 km/h 90% 0.0 mm 5 W/m2
16:43 7 °C 5.5 °C 1010.2 hPa West 3.2 km/h 11.3 km/h 90% 0.0 mm 0 W/m2
16:48 6.9 °C 5.4 °C 1010.2 hPa WNW 3.2 km/h 16.1 km/h 90% 0.0 mm 0 W/m2
16:53 6.9 °C 5.4 °C 1010.5 hPa NNW 4.7 km/h 12.9 km/h 90% 0.0 mm 0 W/m2
16:58 6.8 °C 5.3 °C 1010.5 hPa WNW 4.7 km/h 14.5 km/h 90% 0.0 mm 0 W/m2
17:03 6.8 °C 5.3 °C 1010.5 hPa WNW 6.4 km/h 9.7 km/h 90% 0.0 mm 0 W/m2
17:08 6.8 °C 5.4 °C 1010.5 hPa West 6.4 km/h 11.3 km/h 91% 0.0 mm 0 W/m2
17:13 6.7 °C 5.3 °C 1010.5 hPa WSW 1.4 km/h 6.4 km/h 91% 0.0 mm 0 W/m2
17:18 6.7 °C 5.3 °C 1010.5 hPa West 4.7 km/h 9.7 km/h 91% 0.0 mm 0 W/m2
17:23 6.7 °C 5.5 °C 1010.8 hPa WSW 1.4 km/h 6.4 km/h 92% 0.0 mm 0 W/m2
17:28 6.6 °C 5.4 °C 1010.8 hPa NW 4.7 km/h 6.4 km/h 92% 0.0 mm 0 W/m2
17:33 6.6 °C 5.4 °C 1010.8 hPa West 1.4 km/h 11.3 km/h 92% 0.0 mm 0 W/m2
17:38 6.6 °C 5.4 °C 1010.8 hPa West 6.4 km/h 9.7 km/h 92% 0.0 mm 0 W/m2
17:43 6.6 °C 5.5 °C 1010.8 hPa WNW 7.9 km/h 11.3 km/h 93% 0.0 mm 0 W/m2
17:48 6.5 °C 5.4 °C 1010.8 hPa Calm   9.7 km/h 93% 0.0 mm 0 W/m2
17:53 6.6 °C 5.5 °C 1010.8 hPa West 1.4 km/h 8 km/h 93% 0.0 mm 0 W/m2
17:58 6.6 °C 5.5 °C 1011.2 hPa West 3.2 km/h 8 km/h 93% 0.0 mm 0 W/m2
18:03 6.5 °C 5.4 °C 1011.2 hPa WNW 4.7 km/h 4.8 km/h 93% 0.0 mm 0 W/m2
18:08 6.5 °C 5.4 °C 1011.2 hPa West 3.2 km/h 8 km/h 93% 0.0 mm 0 W/m2
18:13 6.6 °C 5.5 °C 1011.2 hPa West 4.7 km/h 4.8 km/h 93% 0.0 mm 0 W/m2
18:18 6.6 °C 5.5 °C 1011.2 hPa Calm   4.8 km/h 93% 0.0 mm 0 W/m2
18:23 6.6 °C 5.7 °C 1011.5 hPa Calm   4.8 km/h 94% 0.0 mm 0 W/m2
18:28 6.6 °C 5.7 °C 1011.2 hPa NE 3.2 km/h 4.8 km/h 94% 0.0 mm 0 W/m2
18:33 6.6 °C 5.7 °C 1011.5 hPa WSW 1.4 km/h 4.8 km/h 94% 0.0 mm 0 W/m2
18:38 6.6 °C 5.7 °C 1011.5 hPa West 3.2 km/h 6.4 km/h 94% 0.0 mm 0 W/m2
18:43 6.7 °C 5.8 °C 1011.5 hPa NW 3.2 km/h 9.7 km/h 94% 0.0 mm 0 W/m2
18:48 6.7 °C 5.8 °C 1011.9 hPa Calm   3.2 km/h 94% 0.0 mm 0 W/m2
18:53 6.7 °C 5.8 °C 1011.9 hPa WNW 3.2 km/h 3.2 km/h 94% 0.0 mm 0 W/m2
18:58 6.7 °C 5.8 °C 1011.9 hPa WSW 1.4 km/h 3.2 km/h 94% 0.0 mm 0 W/m2
19:03 6.7 °C 5.8 °C 1011.9 hPa Calm     94% 0.0 mm 0 W/m2
19:08 6.7 °C 5.8 °C 1011.9 hPa Calm   1.6 km/h 94% 0.0 mm 0 W/m2
19:13 6.7 °C 5.8 °C 1011.9 hPa NW 4.7 km/h 6.4 km/h 94% 0.0 mm 0 W/m2
19:18 6.7 °C 5.8 °C 1011.9 hPa WNW 3.2 km/h 6.4 km/h 94% 0.0 mm 0 W/m2
19:23 6.8 °C 5.9 °C 1011.9 hPa West 6.4 km/h 6.4 km/h 94% 0.0 mm 0 W/m2
19:28 6.7 °C 5.8 °C 1011.9 hPa WNW 3.2 km/h 6.4 km/h 94% 0.0 mm 0 W/m2
19:33 6.8 °C 5.9 °C 1011.9 hPa NW 3.2 km/h 3.2 km/h 94% 0.0 mm 0 W/m2
19:38 6.8 °C 5.9 °C 1011.9 hPa Calm   1.6 km/h 94% 0.0 mm 0 W/m2
19:43 6.8 °C 5.9 °C 1012.2 hPa North 4.7 km/h 4.8 km/h 94% 0.0 mm 0 W/m2
19:48 6.8 °C 5.9 °C 1012.2 hPa WNW 3.2 km/h 4.8 km/h 94% 0.0 mm 0 W/m2
19:53 6.8 °C 5.9 °C 1012.2 hPa ENE 1.4 km/h 1.6 km/h 94% 0.0 mm 0 W/m2
19:58 6.8 °C 5.9 °C 1012.2 hPa WNW 1.4 km/h 4.8 km/h 94% 0.0 mm 0 W/m2
20:03 6.8 °C 5.9 °C 1012.2 hPa Calm   1.6 km/h 94% 0.0 mm 0 W/m2
20:08 6.8 °C 5.9 °C 1012.2 hPa Calm   6.4 km/h 94% 0.0 mm 0 W/m2
20:13 6.8 °C 5.9 °C 1012.2 hPa Calm   6.4 km/h 94% 0.0 mm 0 W/m2
20:18 6.9 °C 6 °C 1012.2 hPa WNW 3.2 km/h 8 km/h 94% 0.0 mm 0 W/m2
20:23 6.9 °C 6 °C 1012.2 hPa Calm   4.8 km/h 94% 0.0 mm 0 W/m2
20:28 6.9 °C 6 °C 1012.2 hPa WNW 4.7 km/h 16.1 km/h 94% 0.0 mm 0 W/m2
20:33 6.9 °C 6 °C 1012.2 hPa West 6.4 km/h 8 km/h 94% 0.0 mm 0 W/m2
20:38 6.9 °C 6 °C 1012.2 hPa West 3.2 km/h 6.4 km/h 94% 0.0 mm 0 W/m2
20:43 6.9 °C 6 °C 1012.5 hPa WNW 3.2 km/h 12.9 km/h 94% 0.0 mm 0 W/m2
20:48 6.9 °C 6 °C 1012.5 hPa WNW 3.2 km/h 6.4 km/h 94% 0.0 mm 0 W/m2
20:53 6.9 °C 6 °C 1012.5 hPa WNW 4.7 km/h 6.4 km/h 94% 0.0 mm 0 W/m2
20:58 6.9 °C 6 °C 1012.5 hPa WSW 6.4 km/h 6.4 km/h 94% 0.0 mm 0 W/m2
21:03 6.9 °C 6 °C 1012.5 hPa WNW 4.7 km/h 8 km/h 94% 0.0 mm 0 W/m2
21:08 6.9 °C 6 °C 1012.5 hPa WNW 1.4 km/h 4.8 km/h 94% 0.0 mm 0 W/m2
21:13 6.9 °C 6 °C 1012.9 hPa NW 4.7 km/h 9.7 km/h 94% 0.0 mm 0 W/m2
21:18 6.9 °C 6 °C 1012.9 hPa SW 3.2 km/h 9.7 km/h 94% 0.0 mm 0 W/m2
21:23 6.9 °C 6 °C 1012.9 hPa WNW 3.2 km/h 8 km/h 94% 0.0 mm 0 W/m2
21:28 6.9 °C 6 °C 1012.9 hPa West 1.4 km/h 8 km/h 94% 0.0 mm 0 W/m2
21:33 6.9 °C 6 °C 1012.9 hPa West 3.2 km/h 6.4 km/h 94% 0.0 mm 0 W/m2
21:38 7 °C 6.1 °C 1012.9 hPa SW 3.2 km/h 9.7 km/h 94% 0.0 mm 0 W/m2
21:43 6.9 °C 6 °C 1012.9 hPa West 3.2 km/h 3.2 km/h 94% 0.0 mm 0 W/m2
21:48 6.9 °C 6 °C 1012.9 hPa WNW 4.7 km/h 9.7 km/h 94% 0.0 mm 0 W/m2
21:53 6.9 °C 6 °C 1012.9 hPa West 1.4 km/h 8 km/h 94% 0.0 mm 0 W/m2
21:58 6.9 °C 6 °C 1012.9 hPa NW 3.2 km/h 11.3 km/h 94% 0.0 mm 0 W/m2
22:03 6.9 °C 6 °C 1013.2 hPa West 3.2 km/h 6.4 km/h 94% 0.0 mm 0 W/m2
22:08 6.9 °C 6 °C 1013.2 hPa WNW 3.2 km/h 11.3 km/h 94% 0.0 mm 0 W/m2
22:13 6.9 °C 6 °C 1013.2 hPa WNW 3.2 km/h 9.7 km/h 94% 0.0 mm 0 W/m2
22:18 6.9 °C 6 °C 1013.2 hPa West 3.2 km/h 9.7 km/h 94% 0.0 mm 0 W/m2
22:23 6.9 °C 6 °C 1013.2 hPa WNW 4.7 km/h 8 km/h 94% 0.0 mm 0 W/m2
22:28 6.9 °C 6 °C 1013.2 hPa WSW 1.4 km/h 6.4 km/h 94% 0.0 mm 0 W/m2
22:33 6.9 °C 6 °C 1013.5 hPa WNW 4.7 km/h 11.3 km/h 94% 0.0 mm 0 W/m2
22:38 6.9 °C 6 °C 1013.5 hPa WNW 3.2 km/h 6.4 km/h 94% 0.0 mm 0 W/m2
22:43 6.9 °C 6 °C 1013.5 hPa WNW 3.2 km/h 8 km/h 94% 0.0 mm 0 W/m2
22:48 7 °C 6.1 °C 1013.5 hPa WSW 6.4 km/h 11.3 km/h 94% 0.0 mm 0 W/m2
22:53 7 °C 6.1 °C 1013.5 hPa WNW 3.2 km/h 11.3 km/h 94% 0.0 mm 0 W/m2
22:58 7 °C 6.1 °C 1013.5 hPa West 4.7 km/h 8 km/h 94% 0.0 mm 0 W/m2
23:03 6.9 °C 6 °C 1013.5 hPa WSW 6.4 km/h 14.5 km/h 94% 0.2 mm 0 W/m2
23:08 6.9 °C 6 °C 1013.5 hPa WNW 1.4 km/h 9.7 km/h 94% 0.2 mm 0 W/m2
23:13 6.9 °C 6 °C 1013.5 hPa WNW 3.2 km/h 9.7 km/h 94% 0.2 mm 0 W/m2
23:18 6.9 °C 6 °C 1013.5 hPa West 3.2 km/h 8 km/h 94% 0.2 mm 0 W/m2
23:23 6.9 °C 6 °C 1013.5 hPa West 6.4 km/h 12.9 km/h 94% 0.2 mm 0 W/m2
23:28 6.9 °C 6.2 °C 1013.5 hPa WNW 4.7 km/h 12.9 km/h 95% 0.2 mm 0 W/m2
23:33 7 °C 6.3 °C 1013.5 hPa WNW 1.4 km/h 11.3 km/h 95% 0.2 mm 0 W/m2
23:38 7 °C 6.3 °C 1013.9 hPa West 1.4 km/h 8 km/h 95% 0.2 mm 0 W/m2
23:43 7 °C 6.3 °C 1013.9 hPa West 3.2 km/h 11.3 km/h 95% 0.2 mm 0 W/m2
23:48 7 °C 6.3 °C 1013.9 hPa Calm   8 km/h 95% 0.2 mm 0 W/m2
23:54 7 °C 6.3 °C 1013.9 hPa West 3.2 km/h 9.7 km/h 95% 0.2 mm 0 W/m2
23:59 7 °C 6.3 °C 1014.2 hPa West 4.7 km/h 4.8 km/h 95% 0.2 mm 0 W/m2
Juneau County Weather
Compliments of Weather Underground - 4 mb